Time;durP1;ratioP1;P1;durP2;ratioP2;P2;SDS_P1;SDS_P2;PMS_P1;PMS_P2;Temp;Humidity;BMP_temperature;BMP_pressure;BME280_temperature;BME280_humidity;BME280_pressure;Samples;Min_cycle;Max_cycle;Signal;HPM_P1;HPM_P2
2023/09/15 00:01:41;;;;;;;8.10;3.20;;;12.40;99.90;;;;;;5005260;28;20049;-53
2023/09/15 00:04:09;;;;;;;6.88;3.75;;;12.50;99.90;;;;;;4988849;28;20096;-54
2023/09/15 00:06:36;;;;;;;7.70;3.60;;;12.50;99.90;;;;;;4985533;28;20505;-54
2023/09/15 00:09:06;;;;;;;10.73;3.75;;;12.50;99.90;;;;;;4984770;28;20051;-53
2023/09/15 00:11:42;;;;;;;10.10;4.10;;;12.50;99.90;;;;;;4994995;28;20427;-53
2023/09/15 00:14:13;;;;;;;10.18;3.30;;;12.50;99.90;;;;;;5003535;28;20623;-54
2023/09/15 00:16:40;;;;;;;8.27;3.42;;;12.50;99.90;;;;;;5005571;28;20042;-52
2023/09/15 00:19:06;;;;;;;5.88;3.55;;;12.50;99.90;;;;;;5004542;28;20050;-54
2023/09/15 00:21:33;;;;;;;7.13;3.60;;;12.40;99.90;;;;;;5004232;28;20042;-55
2023/09/15 00:24:05;;;;;;;7.22;3.97;;;12.40;99.90;;;;;;5004946;28;20054;-55
2023/09/15 00:26:32;;;;;;;9.93;3.60;;;12.40;99.90;;;;;;5005620;28;20136;-54
2023/09/15 00:28:59;;;;;;;8.70;3.78;;;12.40;99.90;;;;;;5004479;28;20396;-54
2023/09/15 00:31:26;;;;;;;7.82;3.60;;;12.30;99.90;;;;;;4995921;28;20124;-54
2023/09/15 00:33:51;;;;;;;6.35;3.38;;;12.30;99.90;;;;;;4986967;28;20054;-54
2023/09/15 00:36:17;;;;;;;8.20;3.60;;;12.30;99.90;;;;;;4984842;28;20137;-55
2023/09/15 00:38:42;;;;;;;9.75;3.65;;;12.30;99.90;;;;;;4983817;28;20077;-54
2023/09/15 00:41:08;;;;;;;5.75;3.60;;;12.30;99.90;;;;;;4983847;28;20041;-53
2023/09/15 00:43:34;;;;;;;8.02;3.45;;;12.30;99.90;;;;;;4983998;28;20046;-53
2023/09/15 00:46:01;;;;;;;6.53;3.67;;;12.30;99.90;;;;;;4984942;28;20045;-53
2023/09/15 00:48:27;;;;;;;6.43;3.80;;;12.30;99.90;;;;;;4984388;28;20057;-54
2023/09/15 00:50:53;;;;;;;7.10;3.97;;;12.30;99.90;;;;;;4966851;28;20574;-54
2023/09/15 00:53:20;;;;;;;7.00;4.00;;;12.30;99.90;;;;;;4984381;28;20083;-54
2023/09/15 00:55:47;;;;;;;8.45;3.53;;;12.70;99.90;;;;;;4983960;28;20046;-55
2023/09/15 00:58:16;;;;;;;6.25;4.15;;;12.30;99.90;;;;;;4983241;28;20146;-52
2023/09/15 01:00:43;;;;;;;10.68;4.15;;;12.30;99.90;;;;;;4984202;28;20089;-54
2023/09/15 01:03:15;;;;;;;8.82;3.83;;;12.20;99.90;;;;;;4984289;28;20070;-54
2023/09/15 01:05:42;;;;;;;8.48;4.07;;;12.20;99.90;;;;;;4983867;28;20061;-54
2023/09/15 01:08:08;;;;;;;7.78;4.05;;;12.20;99.90;;;;;;4966959;28;20549;-53
2023/09/15 01:10:33;;;;;;;7.50;3.90;;;12.20;99.90;;;;;;4983335;28;20125;-54
2023/09/15 01:13:00;;;;;;;6.53;4.10;;;12.10;99.90;;;;;;5067176;22;20053;-58
2023/09/15 01:15:39;;;;;;;7.35;4.28;;;12.10;99.90;;;;;;4995130;28;20038;-57
2023/09/15 01:18:14;;;;;;;9.77;4.57;;;12.10;99.90;;;;;;4996005;28;20088;-56
2023/09/15 01:21:00;;;;;;;8.77;3.95;;;12.10;99.90;;;;;;4982609;28;20096;-57
2023/09/15 01:24:01;;;;;;;9.60;4.25;;;12.10;99.90;;;;;;5001910;28;20084;-57
2023/09/15 01:26:38;;;;;;;8.95;4.63;;;12.10;99.90;;;;;;5002811;28;20130;-57
2023/09/15 01:29:24;;;;;;;8.15;4.25;;;12.10;99.90;;;;;;5001787;28;20046;-55
2023/09/15 01:31:51;;;;;;;10.20;4.15;;;12.00;99.90;;;;;;4991305;28;20057;-57
2023/09/15 01:34:19;;;;;;;9.05;4.65;;;12.00;99.90;;;;;;5001964;28;20077;-57
2023/09/15 01:36:45;;;;;;;8.57;4.72;;;12.40;99.90;;;;;;5002971;28;20129;-57
2023/09/15 01:39:10;;;;;;;9.07;4.57;;;12.00;99.90;;;;;;5002445;28;20125;-57
2023/09/15 01:41:36;;;;;;;8.07;4.97;;;12.00;99.90;;;;;;5002188;28;20049;-57
2023/09/15 01:44:03;;;;;;;9.10;4.53;;;12.00;99.90;;;;;;5001870;28;20053;-57
2023/09/15 01:46:28;;;;;;;7.35;4.80;;;11.90;99.90;;;;;;5003134;28;20521;-57
2023/09/15 01:48:55;;;;;;;6.65;4.63;;;11.90;99.90;;;;;;5002583;28;20050;-56
2023/09/15 01:51:22;;;;;;;10.90;4.88;;;12.00;99.90;;;;;;5002191;28;20464;-56
2023/09/15 01:53:51;;;;;;;7.93;4.60;;;11.80;99.90;;;;;;5005349;28;20084;-56
2023/09/15 01:56:18;;;;;;;7.43;5.13;;;11.80;99.90;;;;;;4997665;28;20070;-55
2023/09/15 01:58:44;;;;;;;7.50;4.95;;;11.90;99.90;;;;;;4985801;28;20043;-53
2023/09/15 02:01:09;;;;;;;8.70;5.22;;;11.90;99.90;;;;;;4986797;28;20112;-56
2023/09/15 02:03:35;;;;;;;6.38;4.85;;;11.90;99.90;;;;;;4987285;28;20061;-56
2023/09/15 02:06:04;;;;;;;7.95;4.38;;;12.20;99.90;;;;;;4987369;28;20050;-57
2023/09/15 02:08:30;;;;;;;8.15;5.43;;;11.90;99.90;;;;;;4986680;28;20050;-57
2023/09/15 02:10:56;;;;;;;7.97;5.32;;;11.90;99.90;;;;;;4987112;28;20416;-56
2023/09/15 02:13:21;;;;;;;8.55;5.35;;;11.90;99.90;;;;;;4985858;28;20061;-56
2023/09/15 02:15:47;;;;;;;7.82;5.13;;;11.80;99.90;;;;;;4987124;28;20054;-56
2023/09/15 02:18:13;;;;;;;10.10;5.38;;;12.90;99.90;;;;;;5003986;28;20046;-56
2023/09/15 02:20:40;;;;;;;10.18;5.65;;;11.80;99.90;;;;;;5007102;28;20054;-56
2023/09/15 02:23:06;;;;;;;9.05;5.38;;;11.80;99.90;;;;;;5006890;28;20084;-56
2023/09/15 02:25:33;;;;;;;7.57;5.28;;;11.80;99.90;;;;;;5006041;28;20038;-57
2023/09/15 02:27:59;;;;;;;8.30;5.57;;;11.70;99.90;;;;;;5005613;28;20053;-55
2023/09/15 02:30:25;;;;;;;10.57;5.53;;;11.70;99.90;;;;;;5001281;28;20034;-57
2023/09/15 02:32:50;;;;;;;9.70;5.88;;;11.70;99.90;;;;;;4996254;28;20703;-57
2023/09/15 02:35:16;;;;;;;11.18;6.13;;;11.60;99.90;;;;;;5005281;28;20523;-57
2023/09/15 02:37:41;;;;;;;7.60;5.32;;;11.60;99.90;;;;;;5005471;28;20050;-55
2023/09/15 02:40:08;;;;;;;8.90;5.68;;;11.60;99.90;;;;;;5006893;28;20050;-56
2023/09/15 02:42:35;;;;;;;8.18;5.63;;;11.70;99.90;;;;;;5004500;28;20049;-56
2023/09/15 02:45:01;;;;;;;7.90;5.75;;;11.70;99.90;;;;;;5006042;28;20115;-57
2023/09/15 02:47:30;;;;;;;11.30;5.93;;;11.70;99.90;;;;;;5006548;28;20554;-56
2023/09/15 02:49:55;;;;;;;10.38;6.32;;;11.70;99.90;;;;;;5006175;28;20045;-57
2023/09/15 02:52:21;;;;;;;7.15;6.10;;;11.70;99.90;;;;;;5005049;28;20061;-57
2023/09/15 02:54:50;;;;;;;8.13;6.05;;;11.60;99.90;;;;;;5005788;28;20080;-57
2023/09/15 02:57:15;;;;;;;14.27;6.10;;;11.60;99.90;;;;;;4987566;28;20056;-57
2023/09/15 02:59:41;;;;;;;9.48;6.57;;;11.60;99.90;;;;;;5005842;28;20542;-55
2023/09/15 03:02:12;;;;;;;9.82;6.30;;;11.60;99.90;;;;;;5006125;28;20049;-57
2023/09/15 03:04:38;;;;;;;9.65;6.43;;;11.80;99.90;;;;;;4988347;28;20546;-57
2023/09/15 03:07:04;;;;;;;8.10;6.47;;;11.50;99.90;;;;;;5004904;28;20681;-56
2023/09/15 03:09:31;;;;;;;16.05;6.68;;;11.50;99.90;;;;;;5006215;28;20046;-55
2023/09/15 03:11:57;;;;;;;12.02;6.72;;;11.50;99.90;;;;;;5005200;28;20411;-56
2023/09/15 03:14:23;;;;;;;10.20;7.60;;;11.50;99.90;;;;;;4988315;28;20061;-57
2023/09/15 03:16:49;;;;;;;8.18;6.22;;;11.40;99.90;;;;;;4988181;28;20050;-57
2023/09/15 03:19:14;;;;;;;12.38;6.80;;;11.40;99.90;;;;;;4968056;28;20077;-57
2023/09/15 03:21:40;;;;;;;8.40;6.65;;;11.40;99.90;;;;;;4986574;28;20742;-60
2023/09/15 03:24:08;;;;;;;11.52;6.63;;;11.40;99.90;;;;;;4985127;28;20045;-57
2023/09/15 03:26:35;;;;;;;9.18;7.03;;;11.40;99.90;;;;;;4986455;28;20631;-57
2023/09/15 03:29:01;;;;;;;9.20;7.05;;;11.40;99.90;;;;;;4985311;28;20496;-55
2023/09/15 03:31:27;;;;;;;9.32;6.82;;;11.40;99.90;;;;;;4995134;28;20077;-55
2023/09/15 03:33:52;;;;;;;11.90;7.05;;;11.40;99.90;;;;;;4986591;28;20043;-57
2023/09/15 03:36:18;;;;;;;10.73;6.75;;;11.40;99.90;;;;;;4984588;28;20046;-57
2023/09/15 03:38:44;;;;;;;10.30;7.47;;;11.50;99.90;;;;;;4984404;28;20069;-56
2023/09/15 03:41:11;;;;;;;10.25;6.47;;;11.60;99.90;;;;;;4984959;28;20093;-55
2023/09/15 03:43:36;;;;;;;9.30;7.07;;;11.30;99.90;;;;;;4983580;28;20046;-57
2023/09/15 03:46:02;;;;;;;9.48;7.28;;;11.30;99.90;;;;;;4985092;28;20046;-57
2023/09/15 03:48:29;;;;;;;11.23;7.32;;;11.30;99.90;;;;;;4984471;28;20053;-56
2023/09/15 03:50:55;;;;;;;12.13;7.13;;;11.20;99.90;;;;;;4984190;28;20046;-57
2023/09/15 03:53:21;;;;;;;9.02;7.22;;;11.20;99.90;;;;;;4967564;28;20404;-57
2023/09/15 03:55:48;;;;;;;9.98;6.68;;;11.20;99.90;;;;;;4985050;28;20035;-57
2023/09/15 03:58:14;;;;;;;12.75;7.25;;;11.20;99.90;;;;;;4984128;28;20050;-57
2023/09/15 04:00:40;;;;;;;9.27;6.97;;;11.20;99.90;;;;;;4984305;28;20431;-57
2023/09/15 04:03:06;;;;;;;11.07;7.20;;;11.20;99.90;;;;;;4985111;28;20050;-56
2023/09/15 04:05:32;;;;;;;10.57;7.32;;;11.20;99.90;;;;;;4984885;28;20875;-57
2023/09/15 04:07:58;;;;;;;10.10;7.45;;;11.10;99.90;;;;;;4985741;28;20046;-57
2023/09/15 04:10:23;;;;;;;10.73;8.20;;;11.10;99.90;;;;;;5005356;28;20061;-56
2023/09/15 04:12:49;;;;;;;8.52;7.35;;;11.10;99.90;;;;;;5003149;28;20050;-56
2023/09/15 04:15:15;;;;;;;10.98;7.97;;;11.10;99.90;;;;;;5004812;28;20103;-56
2023/09/15 04:17:44;;;;;;;13.07;7.75;;;11.10;99.90;;;;;;5002766;28;20049;-56
2023/09/15 04:20:10;;;;;;;12.38;7.70;;;11.00;99.90;;;;;;5004636;28;20038;-57
2023/09/15 04:22:40;;;;;;;12.18;8.13;;;11.00;99.90;;;;;;5004309;28;20614;-56
2023/09/15 04:25:08;;;;;;;9.60;8.30;;;11.00;99.90;;;;;;5003278;28;20070;-55
2023/09/15 04:27:34;;;;;;;9.27;7.75;;;11.10;99.90;;;;;;5003139;28;20362;-57
2023/09/15 04:30:01;;;;;;;12.50;8.45;;;11.10;99.90;;;;;;5002128;28;20078;-58
2023/09/15 04:32:26;;;;;;;11.10;8.60;;;11.00;99.90;;;;;;4991662;28;20417;-57
2023/09/15 04:34:53;;;;;;;10.85;8.27;;;11.00;99.90;;;;;;4967179;28;20048;-56
2023/09/15 04:37:20;;;;;;;12.82;8.80;;;11.00;99.90;;;;;;4984039;28;20054;-56
2023/09/15 04:39:47;;;;;;;13.88;8.98;;;11.00;99.90;;;;;;4983737;28;20057;-56
2023/09/15 04:42:12;;;;;;;10.13;8.85;;;10.90;99.90;;;;;;4982460;28;20043;-57
2023/09/15 04:44:39;;;;;;;11.85;8.77;;;10.80;99.90;;;;;;4983962;28;20046;-57
2023/09/15 04:47:05;;;;;;;9.85;8.32;;;10.80;99.90;;;;;;4984228;28;20046;-57
2023/09/15 04:49:31;;;;;;;11.73;8.90;;;10.90;99.90;;;;;;4983263;28;20049;-56
2023/09/15 04:51:57;;;;;;;12.93;9.52;;;10.80;99.90;;;;;;4984330;28;20546;-57
2023/09/15 04:54:23;;;;;;;10.63;9.50;;;10.80;99.90;;;;;;4984571;28;20134;-57
2023/09/15 04:56:48;;;;;;;11.30;8.57;;;10.80;99.90;;;;;;4983432;28;20117;-57
2023/09/15 04:59:18;;;;;;;11.48;9.13;;;10.80;99.90;;;;;;4983877;28;20042;-56
2023/09/15 05:01:45;;;;;;;11.25;8.80;;;10.80;99.90;;;;;;4984538;28;20046;-58
2023/09/15 05:04:11;;;;;;;11.27;9.48;;;10.80;99.90;;;;;;4983420;28;20113;-56
2023/09/15 05:06:37;;;;;;;9.90;8.90;;;10.80;99.90;;;;;;4983605;28;20068;-56
2023/09/15 05:09:09;;;;;;;10.50;9.20;;;10.90;99.90;;;;;;4967194;28;20073;-56
2023/09/15 05:11:35;;;;;;;10.80;9.10;;;10.80;99.90;;;;;;4982400;28;20077;-57
2023/09/15 05:14:00;;;;;;;12.27;9.43;;;11.50;99.90;;;;;;4983983;28;20050;-57
2023/09/15 05:16:27;;;;;;;10.45;9.35;;;10.80;99.90;;;;;;4983549;28;20105;-54
2023/09/15 05:18:52;;;;;;;12.80;9.30;;;10.80;99.90;;;;;;4982781;28;20054;-56
2023/09/15 05:21:18;;;;;;;13.55;9.15;;;10.80;99.90;;;;;;4983797;28;20042;-55
2023/09/15 05:23:44;;;;;;;11.45;9.30;;;10.80;99.90;;;;;;4983420;28;20065;-56
2023/09/15 05:26:09;;;;;;;10.32;9.00;;;10.80;99.90;;;;;;4983425;28;20034;-56
2023/09/15 05:28:35;;;;;;;12.35;10.15;;;11.10;99.90;;;;;;4982264;28;20050;-55
2023/09/15 05:31:00;;;;;;;10.50;9.40;;;10.90;99.90;;;;;;4989522;28;20100;-55
2023/09/15 05:33:27;;;;;;;12.43;9.63;;;10.80;99.90;;;;;;4988104;28;20381;-56
2023/09/15 05:35:56;;;;;;;12.68;9.73;;;12.00;99.90;;;;;;4984197;28;20042;-57
2023/09/15 05:38:25;;;;;;;11.45;9.70;;;10.80;99.90;;;;;;4983360;28;20049;-57
2023/09/15 05:40:51;;;;;;;15.23;8.90;;;10.90;99.90;;;;;;4982389;28;20046;-57
2023/09/15 05:43:17;;;;;;;12.75;9.05;;;10.80;99.90;;;;;;4982026;28;20497;-56
2023/09/15 05:45:43;;;;;;;11.50;9.80;;;10.90;99.90;;;;;;4982292;28;20092;-55
2023/09/15 05:48:12;;;;;;;10.90;9.23;;;10.90;99.90;;;;;;4983137;28;20046;-56
2023/09/15 05:50:38;;;;;;;12.43;9.50;;;10.90;99.90;;;;;;4982981;28;20058;-56
2023/09/15 05:53:04;;;;;;;12.10;8.80;;;11.00;99.90;;;;;;4983493;28;20041;-56
2023/09/15 05:55:30;;;;;;;14.55;9.07;;;10.90;99.90;;;;;;4986986;28;20681;-55
2023/09/15 05:57:56;;;;;;;13.07;9.90;;;11.00;99.90;;;;;;4981566;28;20038;-55
2023/09/15 06:00:22;;;;;;;12.05;9.30;;;11.10;99.90;;;;;;4965595;28;20116;-56
2023/09/15 06:02:48;;;;;;;13.45;9.63;;;11.10;99.90;;;;;;4983407;28;20164;-56
2023/09/15 06:05:13;;;;;;;13.13;9.50;;;11.10;99.90;;;;;;4983700;28;20416;-57
2023/09/15 06:07:39;;;;;;;12.00;8.85;;;11.20;99.90;;;;;;4982950;28;20141;-56
2023/09/15 06:10:06;;;;;;;10.02;8.88;;;11.20;99.90;;;;;;4982403;28;20051;-55
2023/09/15 06:12:32;;;;;;;11.82;8.88;;;11.20;99.90;;;;;;4982246;28;20054;-56
2023/09/15 06:14:58;;;;;;;11.63;8.85;;;11.20;99.90;;;;;;4981627;28;20452;-56
2023/09/15 06:17:24;;;;;;;13.18;9.07;;;11.10;99.90;;;;;;4982713;28;20121;-55
2023/09/15 06:19:51;;;;;;;12.73;9.07;;;11.30;99.90;;;;;;4983163;28;20038;-56
2023/09/15 06:22:17;;;;;;;13.52;9.25;;;11.40;99.90;;;;;;4983002;28;20139;-57
2023/09/15 06:24:43;;;;;;;11.45;8.57;;;11.40;99.90;;;;;;4965329;28;20050;-56
2023/09/15 06:27:08;;;;;;;10.77;8.27;;;11.50;99.90;;;;;;4982151;28;20042;-56
2023/09/15 06:29:34;;;;;;;12.10;8.88;;;11.60;99.90;;;;;;4982507;28;20046;-58
2023/09/15 06:31:59;;;;;;;11.35;8.43;;;11.60;99.90;;;;;;4992832;28;20519;-56
2023/09/15 06:34:25;;;;;;;11.27;8.82;;;11.60;99.90;;;;;;4965666;28;20054;-57
2023/09/15 06:36:51;;;;;;;11.43;8.18;;;11.70;99.90;;;;;;4984113;28;20050;-56
2023/09/15 06:39:16;;;;;;;11.98;8.63;;;11.70;99.90;;;;;;4984179;28;20050;-52
2023/09/15 06:41:42;;;;;;;12.85;8.10;;;11.80;99.90;;;;;;4985084;28;20042;-57
2023/09/15 06:44:10;;;;;;;9.13;7.60;;;12.00;99.90;;;;;;4969222;28;20073;-57
2023/09/15 06:46:35;;;;;;;12.15;7.50;;;13.20;99.90;;;;;;4986928;28;20050;-57
2023/09/15 06:49:01;;;;;;;13.63;7.15;;;13.50;99.90;;;;;;4969238;28;20623;-57
2023/09/15 06:51:27;;;;;;;11.15;6.50;;;14.40;99.90;;;;;;4985820;28;20041;-57
2023/09/15 06:53:53;;;;;;;8.18;6.50;;;15.00;99.90;;;;;;4984354;28;20065;-57
2023/09/15 06:56:19;;;;;;;8.00;6.40;;;15.10;99.90;;;;;;5005901;28;20042;-57
2023/09/15 06:58:46;;;;;;;9.77;6.80;;;15.00;99.90;;;;;;5004476;28;20041;-57
2023/09/15 07:01:11;;;;;;;12.88;7.68;;;14.90;99.90;;;;;;4973752;28;20377;-56
2023/09/15 07:03:37;;;;;;;11.02;7.22;;;14.50;99.90;;;;;;4986442;28;20073;-57
2023/09/15 07:06:03;;;;;;;10.50;7.10;;;14.30;99.90;;;;;;4986681;28;20051;-58
2023/09/15 07:08:29;;;;;;;12.63;7.07;;;14.00;99.90;;;;;;4996998;28;20052;-57
2023/09/15 07:10:54;;;;;;;10.82;7.80;;;13.80;99.90;;;;;;4986404;28;20344;-58
2023/09/15 07:13:20;;;;;;;10.73;7.47;;;13.50;99.90;;;;;;4985410;28;20440;-58
2023/09/15 07:15:47;;;;;;;8.85;6.85;;;13.30;99.90;;;;;;4986394;28;20038;-56
2023/09/15 07:18:13;;;;;;;11.55;7.05;;;13.20;99.90;;;;;;4997986;28;20115;-57
2023/09/15 07:20:38;;;;;;;14.00;7.50;;;13.10;99.90;;;;;;4991319;28;20097;-56
2023/09/15 07:23:04;;;;;;;10.23;7.03;;;13.50;99.90;;;;;;4995693;28;20047;-56
2023/09/15 07:25:30;;;;;;;10.45;6.90;;;13.30;99.90;;;;;;4998487;28;20049;-57
2023/09/15 07:27:55;;;;;;;9.50;6.60;;;13.30;99.90;;;;;;5004414;28;20465;-58
2023/09/15 07:30:22;;;;;;;13.00;6.80;;;13.40;99.90;;;;;;4982637;28;20057;-56
2023/09/15 07:32:47;;;;;;;14.52;6.80;;;13.40;99.90;;;;;;4993708;28;20101;-56
2023/09/15 07:35:14;;;;;;;12.85;7.22;;;13.50;99.90;;;;;;4950572;28;20042;-56
2023/09/15 07:37:40;;;;;;;11.80;6.60;;;13.40;99.90;;;;;;4985127;28;20089;-60
2023/09/15 07:40:09;;;;;;;10.80;6.60;;;13.60;99.90;;;;;;4985227;28;20074;-58
2023/09/15 07:42:36;;;;;;;11.25;6.35;;;13.70;99.90;;;;;;4983422;28;20092;-57
2023/09/15 07:45:03;;;;;;;10.00;6.80;;;13.70;99.90;;;;;;4985205;28;20057;-59
2023/09/15 07:47:28;;;;;;;9.95;6.32;;;13.90;99.90;;;;;;4997469;28;20064;-56
2023/09/15 07:49:55;;;;;;;12.35;6.40;;;13.80;99.90;;;;;;5003478;28;20481;-56
2023/09/15 07:52:22;;;;;;;10.18;6.50;;;14.00;99.90;;;;;;4979943;28;20137;-57
2023/09/15 07:54:47;;;;;;;9.48;6.22;;;14.10;99.90;;;;;;4992902;28;20094;-57
2023/09/15 07:57:14;;;;;;;10.10;5.88;;;14.20;99.90;;;;;;4977352;28;20319;-57
2023/09/15 07:59:39;;;;;;;8.68;6.30;;;14.50;99.90;;;;;;4985725;28;20046;-56
2023/09/15 08:02:05;;;;;;;8.90;5.78;;;14.40;99.90;;;;;;5001428;28;20350;-57
2023/09/15 08:04:31;;;;;;;8.20;6.22;;;14.50;99.90;;;;;;5004998;28;20041;-55
2023/09/15 08:06:56;;;;;;;12.80;6.07;;;14.70;99.90;;;;;;5005122;28;20038;-57
2023/09/15 08:09:22;;;;;;;9.27;5.97;;;14.80;99.90;;;;;;4986829;28;20041;-57
2023/09/15 08:11:47;;;;;;;9.70;6.40;;;14.80;99.90;;;;;;5003531;28;20111;-57
2023/09/15 08:14:13;;;;;;;9.93;5.20;;;14.90;99.90;;;;;;5004273;28;20160;-57
2023/09/15 08:16:39;;;;;;;6.88;5.28;;;15.10;99.90;;;;;;5004153;28;20755;-56
2023/09/15 08:19:05;;;;;;;9.05;5.07;;;15.40;99.90;;;;;;5004971;28;20485;-56
2023/09/15 08:21:30;;;;;;;9.85;5.47;;;15.20;99.90;;;;;;5004484;28;20041;-57
2023/09/15 08:23:57;;;;;;;8.07;5.28;;;15.20;99.90;;;;;;5004191;28;20041;-57
2023/09/15 08:26:23;;;;;;;7.90;5.18;;;15.40;99.90;;;;;;5003183;28;20093;-56
2023/09/15 08:28:48;;;;;;;8.57;5.57;;;15.50;99.90;;;;;;5004558;28;20096;-57
2023/09/15 08:31:14;;;;;;;7.43;4.97;;;15.50;99.90;;;;;;4996064;28;20428;-58
2023/09/15 08:33:40;;;;;;;7.68;4.57;;;15.70;99.90;;;;;;4976625;28;20046;-54
2023/09/15 08:36:05;;;;;;;10.35;4.78;;;15.80;99.90;;;;;;4984683;28;20466;-57
2023/09/15 08:38:32;;;;;;;11.90;5.25;;;15.90;99.90;;;;;;4984073;28;20056;-58
2023/09/15 08:41:31;;;;;;;7.22;4.97;;;16.00;99.90;;;;;;4983857;28;20046;-58
2023/09/15 08:43:58;;;;;;;9.77;4.60;;;16.10;99.90;;;;;;4962087;28;20570;-54
2023/09/15 08:46:26;;;;;;;8.57;5.40;;;16.30;99.90;;;;;;4984829;28;20057;-57
2023/09/15 08:48:56;;;;;;;7.90;4.88;;;16.30;99.90;;;;;;4983566;28;20392;-58
2023/09/15 08:51:23;;;;;;;8.05;4.72;;;16.30;99.90;;;;;;4977741;28;20111;-58
2023/09/15 08:53:52;;;;;;;10.80;5.20;;;16.40;99.90;;;;;;4984451;28;20821;-57
2023/09/15 08:56:18;;;;;;;8.45;5.50;;;16.60;99.90;;;;;;4983279;28;20249;-58
2023/09/15 08:58:45;;;;;;;9.38;4.90;;;17.00;99.90;;;;;;4984388;28;20054;-58
2023/09/15 09:01:14;;;;;;;6.88;3.97;;;17.70;99.90;;;;;;4984216;28;20062;-58
2023/09/15 09:03:40;;;;;;;7.95;5.00;;;18.50;99.90;;;;;;4985298;28;20507;-59
2023/09/15 09:06:10;;;;;;;6.43;3.90;;;19.20;99.90;;;;;;5003565;28;20052;-56
2023/09/15 09:08:44;;;;;;;10.18;4.07;;;19.80;98.90;;;;;;5003587;28;20046;-58
2023/09/15 09:11:10;;;;;;;6.57;3.87;;;19.90;97.50;;;;;;5002058;28;20429;-55
2023/09/15 09:13:36;;;;;;;6.68;4.13;;;20.10;97.30;;;;;;4990023;28;20295;-58
2023/09/15 09:16:05;;;;;;;7.35;4.03;;;20.40;97.10;;;;;;4996825;28;20404;-58
2023/09/15 09:18:32;;;;;;;7.32;4.18;;;20.80;97.00;;;;;;5002615;28;20074;-58
2023/09/15 09:20:57;;;;;;;9.20;4.30;;;21.20;96.80;;;;;;4997010;28;20478;-58
2023/09/15 09:23:23;;;;;;;8.55;4.28;;;21.50;96.80;;;;;;4983839;28;20070;-58
2023/09/15 09:25:49;;;;;;;11.65;3.80;;;21.60;96.50;;;;;;4982715;28;21137;-58
2023/09/15 09:28:15;;;;;;;6.78;3.80;;;21.80;96.40;;;;;;4983884;28;20054;-58
2023/09/15 09:30:41;;;;;;;9.85;3.33;;;22.00;96.30;;;;;;4971972;28;20468;-58
2023/09/15 09:33:10;;;;;;;7.45;3.63;;;22.00;95.90;;;;;;4990679;28;20134;-58
2023/09/15 09:35:35;;;;;;;7.28;3.72;;;21.80;95.30;;;;;;4983748;28;20389;-56
2023/09/15 09:38:01;;;;;;;9.13;3.42;;;21.80;95.70;;;;;;4982801;28;20050;-59
2023/09/15 09:40:27;;;;;;;6.55;3.33;;;21.90;95.70;;;;;;4983803;28;20051;-55
2023/09/15 09:42:55;;;;;;;7.13;3.05;;;21.90;95.20;;;;;;4982410;28;20061;-57
2023/09/15 09:45:30;;;;;;;8.10;3.63;;;21.80;95.40;;;;;;4985800;28;20089;-58
2023/09/15 09:47:58;;;;;;;9.50;4.18;;;21.70;94.30;;;;;;4992416;28;20047;-58
2023/09/15 09:50:27;;;;;;;6.43;4.00;;;21.50;94.70;;;;;;4992213;28;20094;-57
2023/09/15 09:52:53;;;;;;;7.95;3.85;;;21.60;95.20;;;;;;4982866;28;20043;-56
2023/09/15 09:55:20;;;;;;;6.50;3.67;;;21.70;95.10;;;;;;4966131;28;20049;-58
2023/09/15 09:57:46;;;;;;;7.75;4.82;;;21.80;95.50;;;;;;4968632;28;20595;-58
2023/09/15 10:00:20;;;;;;;9.48;4.18;;;22.00;95.20;;;;;;4996065;28;20045;-55
2023/09/15 10:02:45;;;;;;;8.18;4.53;;;22.20;94.90;;;;;;5002106;28;20611;-58
2023/09/15 10:05:11;;;;;;;8.55;4.80;;;22.20;94.70;;;;;;5002454;28;20045;-58
2023/09/15 10:07:37;;;;;;;8.27;4.55;;;22.30;94.10;;;;;;5002303;28;20046;-58
2023/09/15 10:10:05;;;;;;;8.35;4.10;;;22.20;93.60;;;;;;5002500;28;20049;-58
2023/09/15 10:12:31;;;;;;;7.90;3.90;;;22.10;93.90;;;;;;5001993;28;20066;-59
2023/09/15 10:14:58;;;;;;;8.00;3.67;;;22.20;94.20;;;;;;5006271;28;20451;-58
2023/09/15 10:17:24;;;;;;;6.70;4.25;;;22.50;93.80;;;;;;5006364;28;20049;-57
2023/09/15 10:19:52;;;;;;;5.88;3.67;;;22.40;92.40;;;;;;5005061;28;20049;-58
2023/09/15 10:22:18;;;;;;;8.43;4.40;;;22.20;93.40;;;;;;5006312;28;20054;-58
2023/09/15 10:24:53;;;;;;;7.05;4.00;;;22.20;93.90;;;;;;5006226;28;20046;-58
2023/09/15 10:27:19;;;;;;;6.72;3.88;;;22.60;94.30;;;;;;5004941;28;20513;-58
2023/09/15 10:29:45;;;;;;;7.25;3.55;;;23.00;93.90;;;;;;5005402;28;20046;-58
2023/09/15 10:32:19;;;;;;;7.70;3.90;;;23.10;93.40;;;;;;4998664;28;20030;-58
2023/09/15 10:34:47;;;;;;;6.95;3.45;;;23.20;93.20;;;;;;4996658;28;20181;-59
2023/09/15 10:37:13;;;;;;;7.63;3.28;;;23.30;93.40;;;;;;4997389;28;20031;-58
2023/09/15 10:39:43;;;;;;;7.38;3.22;;;23.30;93.20;;;;;;4992243;28;20455;-59
2023/09/15 10:42:15;;;;;;;7.82;3.15;;;23.30;92.40;;;;;;4994713;28;20046;-58
2023/09/15 10:44:41;;;;;;;6.97;3.08;;;23.50;92.10;;;;;;5005896;28;20048;-59
2023/09/15 10:47:17;;;;;;;5.53;3.30;;;23.50;91.90;;;;;;5004781;28;20564;-59
2023/09/15 10:49:53;;;;;;;5.32;2.88;;;23.50;92.00;;;;;;4991200;28;20038;-59
2023/09/15 10:52:35;;;;;;;6.40;3.13;;;23.40;90.90;;;;;;4994966;28;20092;-60
2023/09/15 10:55:02;;;;;;;7.43;3.60;;;23.30;92.10;;;;;;4968896;28;20117;-59
2023/09/15 10:57:28;;;;;;;9.23;3.45;;;23.40;91.90;;;;;;4991568;28;20196;-58
2023/09/15 10:59:55;;;;;;;7.63;3.30;;;23.50;91.40;;;;;;4999065;28;20389;-58
2023/09/15 11:02:21;;;;;;;7.10;3.50;;;23.80;91.90;;;;;;5000313;28;20499;-59
2023/09/15 11:04:47;;;;;;;6.78;3.10;;;23.80;91.70;;;;;;5001203;28;20117;-59
2023/09/15 11:07:16;;;;;;;6.55;3.25;;;23.90;91.90;;;;;;5005951;28;20081;-60
2023/09/15 11:09:42;;;;;;;5.38;3.25;;;24.10;90.80;;;;;;5005539;28;20046;-59
2023/09/15 11:12:10;;;;;;;7.35;3.05;;;24.00;90.40;;;;;;5001434;28;20046;-60
2023/09/15 11:14:36;;;;;;;6.20;3.15;;;23.80;90.70;;;;;;5004233;28;20053;-60
2023/09/15 11:17:03;;;;;;;5.93;3.20;;;23.80;91.40;;;;;;5005928;28;20060;-60
2023/09/15 11:19:32;;;;;;;7.68;2.90;;;24.00;91.10;;;;;;5005553;28;20050;-60
2023/09/15 11:22:02;;;;;;;6.47;2.92;;;24.20;91.30;;;;;;5005281;28;20117;-60
2023/09/15 11:24:28;;;;;;;7.47;2.42;;;24.30;90.70;;;;;;5003975;28;20049;-60
2023/09/15 11:26:54;;;;;;;5.57;2.55;;;24.40;91.30;;;;;;5004802;28;20400;-60
2023/09/15 11:29:28;;;;;;;6.75;3.03;;;24.60;90.20;;;;;;4987913;28;20049;-60
2023/09/15 11:31:54;;;;;;;6.80;2.83;;;24.20;89.90;;;;;;4993819;28;20517;-60
2023/09/15 11:34:21;;;;;;;7.03;2.58;;;24.00;90.70;;;;;;5006029;28;20041;-59
2023/09/15 11:36:47;;;;;;;9.40;3.15;;;23.90;91.00;;;;;;5005590;28;20738;-59
2023/09/15 11:39:15;;;;;;;7.97;3.40;;;23.80;91.40;;;;;;5005094;28;20301;-60
2023/09/15 11:41:53;;;;;;;8.10;3.80;;;24.10;91.40;;;;;;5002856;28;20488;-59
2023/09/15 11:44:20;;;;;;;7.45;3.78;;;24.20;90.30;;;;;;5001007;28;20060;-58
2023/09/15 11:46:48;;;;;;;7.88;3.03;;;23.90;90.90;;;;;;5005301;28;20516;-58
2023/09/15 11:49:16;;;;;;;6.57;3.13;;;23.70;91.40;;;;;;4987709;28;20049;-60
2023/09/15 11:51:42;;;;;;;9.05;3.53;;;23.90;92.00;;;;;;4992936;28;20544;-59
2023/09/15 11:54:08;;;;;;;7.63;3.67;;;24.10;91.90;;;;;;4985075;28;20069;-59
2023/09/15 11:56:34;;;;;;;5.78;3.67;;;24.30;91.50;;;;;;4989596;28;20037;-58
2023/09/15 11:58:59;;;;;;;7.78;3.75;;;24.30;90.90;;;;;;4988531;28;20080;-60
2023/09/15 12:01:27;;;;;;;6.45;3.45;;;24.10;90.90;;;;;;5004006;28;20526;-60
2023/09/15 12:03:53;;;;;;;6.55;3.38;;;23.90;90.60;;;;;;5004556;28;20049;-60
2023/09/15 12:06:20;;;;;;;7.72;2.95;;;23.80;91.40;;;;;;4984153;28;20085;-58
2023/09/15 12:08:50;;;;;;;6.15;3.50;;;23.80;91.80;;;;;;4981749;28;20054;-59
2023/09/15 12:11:17;;;;;;;5.95;3.00;;;23.80;91.30;;;;;;4987659;28;20034;-61
2023/09/15 12:13:43;;;;;;;4.72;3.33;;;23.90;91.70;;;;;;4984342;28;21141;-59
2023/09/15 12:16:17;;;;;;;6.57;3.10;;;24.00;91.60;;;;;;4985348;28;20055;-58
2023/09/15 12:18:46;;;;;;;7.10;2.88;;;24.20;91.80;;;;;;5003900;28;20038;-60
2023/09/15 12:21:13;;;;;;;8.30;3.33;;;24.20;91.20;;;;;;5003780;28;20050;-60
2023/09/15 12:23:38;;;;;;;6.00;3.05;;;24.20;91.80;;;;;;5004300;28;20058;-60
2023/09/15 12:26:04;;;;;;;8.73;3.00;;;24.20;91.60;;;;;;5003580;28;20554;-59
2023/09/15 12:28:31;;;;;;;6.95;3.17;;;24.20;90.90;;;;;;4986841;28;20138;-60
2023/09/15 12:31:00;;;;;;;5.97;2.60;;;24.20;90.70;;;;;;4981000;28;20049;-58
2023/09/15 12:33:26;;;;;;;7.70;2.50;;;24.00;91.00;;;;;;4989152;28;20110;-60
2023/09/15 12:35:52;;;;;;;6.10;2.90;;;23.80;91.10;;;;;;4997448;28;20485;-59
2023/09/15 12:38:18;;;;;;;5.45;3.15;;;24.00;90.90;;;;;;4985536;28;20046;-58
2023/09/15 12:40:49;;;;;;;9.02;3.20;;;23.90;91.20;;;;;;5003324;28;20049;-58
2023/09/15 12:43:15;;;;;;;9.23;3.15;;;23.80;91.70;;;;;;4996092;28;20046;-57